sensor_id;sensor_type;location;lat;lon;timestamp;temperature;humidity
7720;DHT22;3902;49.474;8.616;2023-02-28T00:00:24;3.80;82.80
7720;DHT22;3902;49.474;8.616;2023-02-28T00:02:50;3.80;83.00
7720;DHT22;3902;49.474;8.616;2023-02-28T00:05:18;3.80;83.00
7720;DHT22;3902;49.474;8.616;2023-02-28T00:07:44;3.80;83.10
7720;DHT22;3902;49.474;8.616;2023-02-28T00:12:44;3.70;83.20
7720;DHT22;3902;49.474;8.616;2023-02-28T00:15:10;3.70;83.40
7720;DHT22;3902;49.474;8.616;2023-02-28T00:17:37;3.70;83.60
7720;DHT22;3902;49.474;8.616;2023-02-28T00:20:03;3.70;83.40
7720;DHT22;3902;49.474;8.616;2023-02-28T00:22:39;3.60;83.40
7720;DHT22;3902;49.474;8.616;2023-02-28T00:25:06;3.60;83.90
7720;DHT22;3902;49.474;8.616;2023-02-28T00:27:32;3.60;84.30
7720;DHT22;3902;49.474;8.616;2023-02-28T00:29:58;3.50;85.00
7720;DHT22;3902;49.474;8.616;2023-02-28T00:32:24;3.50;84.50
7720;DHT22;3902;49.474;8.616;2023-02-28T00:34:49;3.50;84.60
7720;DHT22;3902;49.474;8.616;2023-02-28T00:37:15;3.40;84.90
7720;DHT22;3902;49.474;8.616;2023-02-28T00:39:40;3.50;85.10
7720;DHT22;3902;49.474;8.616;2023-02-28T00:42:06;3.40;85.40
7720;DHT22;3902;49.474;8.616;2023-02-28T00:44:32;3.30;85.40
7720;DHT22;3902;49.474;8.616;2023-02-28T00:46:58;3.30;85.50
7720;DHT22;3902;49.474;8.616;2023-02-28T00:49:25;3.30;85.60
7720;DHT22;3902;49.474;8.616;2023-02-28T00:51:51;3.30;86.00
7720;DHT22;3902;49.474;8.616;2023-02-28T00:54:17;3.30;86.20
7720;DHT22;3902;49.474;8.616;2023-02-28T00:56:42;3.30;86.30
7720;DHT22;3902;49.474;8.616;2023-02-28T00:59:08;3.20;86.60
7720;DHT22;3902;49.474;8.616;2023-02-28T01:01:33;3.20;86.90
7720;DHT22;3902;49.474;8.616;2023-02-28T01:03:59;3.20;87.00
7720;DHT22;3902;49.474;8.616;2023-02-28T01:06:25;3.20;87.10
7720;DHT22;3902;49.474;8.616;2023-02-28T01:08:50;3.20;87.50
7720;DHT22;3902;49.474;8.616;2023-02-28T01:11:17;3.20;87.50
7720;DHT22;3902;49.474;8.616;2023-02-28T01:13:44;3.10;87.60
7720;DHT22;3902;49.474;8.616;2023-02-28T01:16:10;3.10;87.90
7720;DHT22;3902;49.474;8.616;2023-02-28T01:18:36;3.10;88.10
7720;DHT22;3902;49.474;8.616;2023-02-28T01:21:07;3.10;88.40
7720;DHT22;3902;49.474;8.616;2023-02-28T01:23:33;3.00;88.30
7720;DHT22;3902;49.474;8.616;2023-02-28T01:26:14;3.10;88.70
7720;DHT22;3902;49.474;8.616;2023-02-28T01:28:40;3.00;88.70
7720;DHT22;3902;49.474;8.616;2023-02-28T01:31:06;3.00;88.80
7720;DHT22;3902;49.474;8.616;2023-02-28T01:33:32;3.10;89.10
7720;DHT22;3902;49.474;8.616;2023-02-28T01:36:04;3.00;89.40
7720;DHT22;3902;49.474;8.616;2023-02-28T01:38:30;3.00;89.50
7720;DHT22;3902;49.474;8.616;2023-02-28T01:40:56;3.00;89.70
7720;DHT22;3902;49.474;8.616;2023-02-28T01:43:23;2.90;89.70
7720;DHT22;3902;49.474;8.616;2023-02-28T01:45:50;2.90;89.80
7720;DHT22;3902;49.474;8.616;2023-02-28T01:48:15;2.90;90.00
7720;DHT22;3902;49.474;8.616;2023-02-28T01:50:43;2.90;90.10
7720;DHT22;3902;49.474;8.616;2023-02-28T01:53:13;2.90;90.20
7720;DHT22;3902;49.474;8.616;2023-02-28T01:55:41;2.90;90.30
7720;DHT22;3902;49.474;8.616;2023-02-28T01:58:10;2.90;90.40
7720;DHT22;3902;49.474;8.616;2023-02-28T02:00:36;2.90;90.50
7720;DHT22;3902;49.474;8.616;2023-02-28T02:03:10;2.80;90.50
7720;DHT22;3902;49.474;8.616;2023-02-28T02:05:38;2.80;90.70
7720;DHT22;3902;49.474;8.616;2023-02-28T02:08:08;2.80;90.90
7720;DHT22;3902;49.474;8.616;2023-02-28T02:10:39;2.80;90.80
7720;DHT22;3902;49.474;8.616;2023-02-28T02:19:32;2.80;91.20
7720;DHT22;3902;49.474;8.616;2023-02-28T02:22:12;2.70;91.30
7720;DHT22;3902;49.474;8.616;2023-02-28T02:28:03;2.70;91.40
7720;DHT22;3902;49.474;8.616;2023-02-28T02:30:34;2.70;91.60
7720;DHT22;3902;49.474;8.616;2023-02-28T02:33:23;2.70;91.60
7720;DHT22;3902;49.474;8.616;2023-02-28T02:36:11;2.60;91.70
7720;DHT22;3902;49.474;8.616;2023-02-28T02:38:59;2.60;92.00
7720;DHT22;3902;49.474;8.616;2023-02-28T02:41:47;2.60;92.00
7720;DHT22;3902;49.474;8.616;2023-02-28T02:44:21;2.50;92.00
7720;DHT22;3902;49.474;8.616;2023-02-28T02:46:51;2.60;92.20
7720;DHT22;3902;49.474;8.616;2023-02-28T02:49:24;2.60;92.40
7720;DHT22;3902;49.474;8.616;2023-02-28T02:51:52;2.50;92.40
7720;DHT22;3902;49.474;8.616;2023-02-28T02:54:24;2.50;92.30
7720;DHT22;3902;49.474;8.616;2023-02-28T02:56:57;2.50;92.60
7720;DHT22;3902;49.474;8.616;2023-02-28T02:59:24;2.50;92.70
7720;DHT22;3902;49.474;8.616;2023-02-28T03:01:52;2.40;92.90
7720;DHT22;3902;49.474;8.616;2023-02-28T03:04:22;2.40;92.90
7720;DHT22;3902;49.474;8.616;2023-02-28T03:06:50;2.40;92.80
7720;DHT22;3902;49.474;8.616;2023-02-28T03:09:20;2.40;92.90
7720;DHT22;3902;49.474;8.616;2023-02-28T03:11:46;2.40;93.10
7720;DHT22;3902;49.474;8.616;2023-02-28T03:14:25;2.30;93.20
7720;DHT22;3902;49.474;8.616;2023-02-28T03:17:05;2.30;93.40
7720;DHT22;3902;49.474;8.616;2023-02-28T03:27:43;2.30;93.50
7720;DHT22;3902;49.474;8.616;2023-02-28T03:30:17;2.20;93.60
7720;DHT22;3902;49.474;8.616;2023-02-28T03:33:01;2.30;93.80
7720;DHT22;3902;49.474;8.616;2023-02-28T03:35:34;2.30;93.80
7720;DHT22;3902;49.474;8.616;2023-02-28T03:38:10;2.20;93.70
7720;DHT22;3902;49.474;8.616;2023-02-28T03:40:44;2.20;93.80
7720;DHT22;3902;49.474;8.616;2023-02-28T03:43:14;2.20;93.80
7720;DHT22;3902;49.474;8.616;2023-02-28T03:45:43;2.20;93.90
7720;DHT22;3902;49.474;8.616;2023-02-28T03:48:19;2.20;94.00
7720;DHT22;3902;49.474;8.616;2023-02-28T03:50:50;2.20;93.90
7720;DHT22;3902;49.474;8.616;2023-02-28T03:55:59;2.20;94.20
7720;DHT22;3902;49.474;8.616;2023-02-28T03:58:51;2.20;94.30
7720;DHT22;3902;49.474;8.616;2023-02-28T04:01:40;2.20;94.20
7720;DHT22;3902;49.474;8.616;2023-02-28T04:04:10;2.20;94.40
7720;DHT22;3902;49.474;8.616;2023-02-28T04:06:36;2.10;94.30
7720;DHT22;3902;49.474;8.616;2023-02-28T04:09:04;2.20;94.40
7720;DHT22;3902;49.474;8.616;2023-02-28T04:11:35;2.20;94.50
7720;DHT22;3902;49.474;8.616;2023-02-28T04:14:02;2.20;94.50
7720;DHT22;3902;49.474;8.616;2023-02-28T04:16:30;2.20;94.50
7720;DHT22;3902;49.474;8.616;2023-02-28T04:18:55;2.10;94.50
7720;DHT22;3902;49.474;8.616;2023-02-28T04:21:31;2.10;94.70
7720;DHT22;3902;49.474;8.616;2023-02-28T04:23:56;2.10;94.70
7720;DHT22;3902;49.474;8.616;2023-02-28T04:26:29;2.20;94.90
7720;DHT22;3902;49.474;8.616;2023-02-28T04:28:55;2.10;94.80
7720;DHT22;3902;49.474;8.616;2023-02-28T04:31:21;2.10;94.90
7720;DHT22;3902;49.474;8.616;2023-02-28T04:33:46;2.10;95.00
7720;DHT22;3902;49.474;8.616;2023-02-28T04:36:12;2.10;94.90
7720;DHT22;3902;49.474;8.616;2023-02-28T04:38:39;2.20;95.10
7720;DHT22;3902;49.474;8.616;2023-02-28T04:41:05;2.10;95.10
7720;DHT22;3902;49.474;8.616;2023-02-28T04:43:31;2.10;95.10
7720;DHT22;3902;49.474;8.616;2023-02-28T04:46:00;2.10;95.20
7720;DHT22;3902;49.474;8.616;2023-02-28T04:48:28;2.10;95.20
7720;DHT22;3902;49.474;8.616;2023-02-28T04:50:55;2.10;95.30
7720;DHT22;3902;49.474;8.616;2023-02-28T04:53:24;2.10;95.40
7720;DHT22;3902;49.474;8.616;2023-02-28T04:55:50;2.00;95.30
7720;DHT22;3902;49.474;8.616;2023-02-28T04:58:15;2.00;95.50
7720;DHT22;3902;49.474;8.616;2023-02-28T05:00:41;2.00;95.40
7720;DHT22;3902;49.474;8.616;2023-02-28T05:03:07;2.00;95.50
7720;DHT22;3902;49.474;8.616;2023-02-28T05:05:32;2.00;95.50
7720;DHT22;3902;49.474;8.616;2023-02-28T05:07:58;2.00;95.60
7720;DHT22;3902;49.474;8.616;2023-02-28T05:10:24;2.00;95.60
7720;DHT22;3902;49.474;8.616;2023-02-28T05:12:49;2.00;95.70
7720;DHT22;3902;49.474;8.616;2023-02-28T05:15:16;2.00;95.80
7720;DHT22;3902;49.474;8.616;2023-02-28T05:17:42;2.00;95.60
7720;DHT22;3902;49.474;8.616;2023-02-28T05:20:08;2.00;95.80
7720;DHT22;3902;49.474;8.616;2023-02-28T05:22:36;2.00;95.70
7720;DHT22;3902;49.474;8.616;2023-02-28T05:25:02;2.00;95.80
7720;DHT22;3902;49.474;8.616;2023-02-28T05:27:28;2.10;95.90
7720;DHT22;3902;49.474;8.616;2023-02-28T05:29:53;2.10;95.80
7720;DHT22;3902;49.474;8.616;2023-02-28T05:32:19;2.10;95.80
7720;DHT22;3902;49.474;8.616;2023-02-28T05:34:44;2.10;95.80
7720;DHT22;3902;49.474;8.616;2023-02-28T05:37:14;2.10;95.80
7720;DHT22;3902;49.474;8.616;2023-02-28T05:39:41;2.20;95.80
7720;DHT22;3902;49.474;8.616;2023-02-28T05:42:06;2.20;95.90
7720;DHT22;3902;49.474;8.616;2023-02-28T05:44:33;2.20;95.90
7720;DHT22;3902;49.474;8.616;2023-02-28T05:46:59;2.10;95.80
7720;DHT22;3902;49.474;8.616;2023-02-28T05:49:24;2.20;95.90
7720;DHT22;3902;49.474;8.616;2023-02-28T05:51:50;2.20;95.90
7720;DHT22;3902;49.474;8.616;2023-02-28T05:54:15;2.10;95.90
7720;DHT22;3902;49.474;8.616;2023-02-28T05:56:41;2.10;95.90
7720;DHT22;3902;49.474;8.616;2023-02-28T05:59:09;2.10;96.10
7720;DHT22;3902;49.474;8.616;2023-02-28T06:01:37;2.10;95.90
7720;DHT22;3902;49.474;8.616;2023-02-28T06:04:05;2.10;96.00
7720;DHT22;3902;49.474;8.616;2023-02-28T06:06:31;2.10;95.90
7720;DHT22;3902;49.474;8.616;2023-02-28T06:08:59;2.10;96.20
7720;DHT22;3902;49.474;8.616;2023-02-28T06:11:26;2.10;96.00
7720;DHT22;3902;49.474;8.616;2023-02-28T06:13:56;2.10;95.90
7720;DHT22;3902;49.474;8.616;2023-02-28T06:16:23;2.00;95.70
7720;DHT22;3902;49.474;8.616;2023-02-28T06:18:48;2.10;95.80
7720;DHT22;3902;49.474;8.616;2023-02-28T06:21:14;2.10;95.80
7720;DHT22;3902;49.474;8.616;2023-02-28T06:23:39;2.10;95.70
7720;DHT22;3902;49.474;8.616;2023-02-28T06:26:05;2.10;95.70
7720;DHT22;3902;49.474;8.616;2023-02-28T06:28:31;2.10;95.60
7720;DHT22;3902;49.474;8.616;2023-02-28T06:30:57;2.10;95.80
7720;DHT22;3902;49.474;8.616;2023-02-28T06:33:22;2.10;95.90
7720;DHT22;3902;49.474;8.616;2023-02-28T06:35:50;2.10;95.60
7720;DHT22;3902;49.474;8.616;2023-02-28T06:38:16;2.10;95.80
7720;DHT22;3902;49.474;8.616;2023-02-28T06:40:41;2.20;95.90
7720;DHT22;3902;49.474;8.616;2023-02-28T06:43:07;2.20;95.90
7720;DHT22;3902;49.474;8.616;2023-02-28T06:45:32;2.20;95.90
7720;DHT22;3902;49.474;8.616;2023-02-28T06:47:58;2.20;95.80
7720;DHT22;3902;49.474;8.616;2023-02-28T06:50:25;2.20;95.80
7720;DHT22;3902;49.474;8.616;2023-02-28T06:52:52;2.20;95.90
7720;DHT22;3902;49.474;8.616;2023-02-28T06:55:19;2.20;95.80
7720;DHT22;3902;49.474;8.616;2023-02-28T06:57:45;2.30;96.20
7720;DHT22;3902;49.474;8.616;2023-02-28T07:00:11;2.30;96.10
7720;DHT22;3902;49.474;8.616;2023-02-28T07:02:37;2.40;96.10
7720;DHT22;3902;49.474;8.616;2023-02-28T07:05:04;2.40;96.10
7720;DHT22;3902;49.474;8.616;2023-02-28T07:07:29;2.40;96.10
7720;DHT22;3902;49.474;8.616;2023-02-28T07:09:55;2.50;96.10
7720;DHT22;3902;49.474;8.616;2023-02-28T07:12:21;2.60;95.90
7720;DHT22;3902;49.474;8.616;2023-02-28T07:14:47;2.60;95.70
7720;DHT22;3902;49.474;8.616;2023-02-28T07:17:12;2.70;95.90
7720;DHT22;3902;49.474;8.616;2023-02-28T07:19:39;2.70;95.80
7720;DHT22;3902;49.474;8.616;2023-02-28T07:22:05;2.70;95.80
7720;DHT22;3902;49.474;8.616;2023-02-28T07:24:31;2.70;95.80
7720;DHT22;3902;49.474;8.616;2023-02-28T07:26:57;2.80;96.10
7720;DHT22;3902;49.474;8.616;2023-02-28T07:29:22;2.80;95.80
7720;DHT22;3902;49.474;8.616;2023-02-28T07:31:48;2.90;95.70
7720;DHT22;3902;49.474;8.616;2023-02-28T07:34:15;2.90;95.60
7720;DHT22;3902;49.474;8.616;2023-02-28T07:36:41;2.90;95.60
7720;DHT22;3902;49.474;8.616;2023-02-28T07:39:06;3.00;95.70
7720;DHT22;3902;49.474;8.616;2023-02-28T07:41:34;3.10;95.50
7720;DHT22;3902;49.474;8.616;2023-02-28T07:44:02;3.10;95.30
7720;DHT22;3902;49.474;8.616;2023-02-28T07:46:28;3.10;95.40
7720;DHT22;3902;49.474;8.616;2023-02-28T07:49:00;3.10;95.40
7720;DHT22;3902;49.474;8.616;2023-02-28T07:51:26;3.20;95.50
7720;DHT22;3902;49.474;8.616;2023-02-28T07:53:51;3.20;95.20
7720;DHT22;3902;49.474;8.616;2023-02-28T07:56:17;3.20;95.40
7720;DHT22;3902;49.474;8.616;2023-02-28T07:58:42;3.20;95.30
7720;DHT22;3902;49.474;8.616;2023-02-28T08:01:09;3.20;95.10
7720;DHT22;3902;49.474;8.616;2023-02-28T08:03:36;3.30;95.30
7720;DHT22;3902;49.474;8.616;2023-02-28T08:06:03;3.30;95.30
7720;DHT22;3902;49.474;8.616;2023-02-28T08:08:29;3.40;95.10
7720;DHT22;3902;49.474;8.616;2023-02-28T08:11:01;3.40;95.10
7720;DHT22;3902;49.474;8.616;2023-02-28T08:13:28;3.50;95.10
7720;DHT22;3902;49.474;8.616;2023-02-28T08:15:55;3.50;94.90
7720;DHT22;3902;49.474;8.616;2023-02-28T08:18:22;3.60;95.10
7720;DHT22;3902;49.474;8.616;2023-02-28T08:20:47;3.60;95.10
7720;DHT22;3902;49.474;8.616;2023-02-28T08:23:13;3.70;95.10
7720;DHT22;3902;49.474;8.616;2023-02-28T08:25:39;3.70;95.00
7720;DHT22;3902;49.474;8.616;2023-02-28T08:28:04;3.70;94.70
7720;DHT22;3902;49.474;8.616;2023-02-28T08:30:30;3.60;94.40
7720;DHT22;3902;49.474;8.616;2023-02-28T08:32:55;3.60;94.20
7720;DHT22;3902;49.474;8.616;2023-02-28T08:35:21;3.60;94.50
7720;DHT22;3902;49.474;8.616;2023-02-28T08:37:50;3.70;94.80
7720;DHT22;3902;49.474;8.616;2023-02-28T08:40:16;3.70;94.70
7720;DHT22;3902;49.474;8.616;2023-02-28T08:42:45;3.70;94.70
7720;DHT22;3902;49.474;8.616;2023-02-28T08:45:11;3.70;94.70
7720;DHT22;3902;49.474;8.616;2023-02-28T08:47:36;3.80;94.40
7720;DHT22;3902;49.474;8.616;2023-02-28T08:50:03;3.70;94.20
7720;DHT22;3902;49.474;8.616;2023-02-28T08:52:28;3.80;94.40
7720;DHT22;3902;49.474;8.616;2023-02-28T08:54:54;3.70;94.20
7720;DHT22;3902;49.474;8.616;2023-02-28T08:57:20;3.80;94.50
7720;DHT22;3902;49.474;8.616;2023-02-28T08:59:45;3.80;94.20
7720;DHT22;3902;49.474;8.616;2023-02-28T09:02:14;3.90;94.30
7720;DHT22;3902;49.474;8.616;2023-02-28T09:04:41;3.90;93.90
7720;DHT22;3902;49.474;8.616;2023-02-28T09:07:07;4.00;94.00
7720;DHT22;3902;49.474;8.616;2023-02-28T09:09:32;4.00;93.70
7720;DHT22;3902;49.474;8.616;2023-02-28T09:11:58;4.00;93.70
7720;DHT22;3902;49.474;8.616;2023-02-28T09:14:24;4.10;93.70
7720;DHT22;3902;49.474;8.616;2023-02-28T09:16:49;4.20;93.80
7720;DHT22;3902;49.474;8.616;2023-02-28T09:19:15;4.20;93.70
7720;DHT22;3902;49.474;8.616;2023-02-28T09:21:40;4.30;93.60
7720;DHT22;3902;49.474;8.616;2023-02-28T09:24:06;4.40;93.80
7720;DHT22;3902;49.474;8.616;2023-02-28T09:26:32;4.40;93.40
7720;DHT22;3902;49.474;8.616;2023-02-28T09:28:59;4.50;93.80
7720;DHT22;3902;49.474;8.616;2023-02-28T09:31:27;4.60;93.20
7720;DHT22;3902;49.474;8.616;2023-02-28T09:33:55;4.70;93.40
7720;DHT22;3902;49.474;8.616;2023-02-28T09:36:23;4.70;93.20
7720;DHT22;3902;49.474;8.616;2023-02-28T09:38:49;4.80;93.20
7720;DHT22;3902;49.474;8.616;2023-02-28T09:41:20;4.90;93.20
7720;DHT22;3902;49.474;8.616;2023-02-28T09:43:53;5.00;93.00
7720;DHT22;3902;49.474;8.616;2023-02-28T09:46:42;5.00;92.70
7720;DHT22;3902;49.474;8.616;2023-02-28T09:49:14;5.10;92.20
7720;DHT22;3902;49.474;8.616;2023-02-28T09:51:50;5.20;92.70
7720;DHT22;3902;49.474;8.616;2023-02-28T09:54:21;5.30;92.50
7720;DHT22;3902;49.474;8.616;2023-02-28T09:57:35;5.40;92.20
7720;DHT22;3902;49.474;8.616;2023-02-28T10:03:02;5.50;92.00
7720;DHT22;3902;49.474;8.616;2023-02-28T10:05:34;5.60;91.70
7720;DHT22;3902;49.474;8.616;2023-02-28T10:10:42;5.80;91.80
7720;DHT22;3902;49.474;8.616;2023-02-28T10:15:52;6.00;91.60
7720;DHT22;3902;49.474;8.616;2023-02-28T10:18:57;6.10;91.30
7720;DHT22;3902;49.474;8.616;2023-02-28T10:21:41;6.10;90.50
7720;DHT22;3902;49.474;8.616;2023-02-28T10:24:45;6.20;90.70
7720;DHT22;3902;49.474;8.616;2023-02-28T10:29:43;6.50;90.90
7720;DHT22;3902;49.474;8.616;2023-02-28T10:32:12;6.50;90.20
7720;DHT22;3902;49.474;8.616;2023-02-28T10:34:39;6.60;90.20
7720;DHT22;3902;49.474;8.616;2023-02-28T10:37:05;6.70;88.90
7720;DHT22;3902;49.474;8.616;2023-02-28T10:39:41;6.70;89.90
7720;DHT22;3902;49.474;8.616;2023-02-28T10:42:20;6.70;89.80
7720;DHT22;3902;49.474;8.616;2023-02-28T10:44:46;6.90;90.30
7720;DHT22;3902;49.474;8.616;2023-02-28T10:47:15;7.00;90.20
7720;DHT22;3902;49.474;8.616;2023-02-28T10:49:47;7.10;88.90
7720;DHT22;3902;49.474;8.616;2023-02-28T10:52:14;7.20;89.20
7720;DHT22;3902;49.474;8.616;2023-02-28T10:55:15;7.30;88.50
7720;DHT22;3902;49.474;8.616;2023-02-28T10:57:41;7.40;87.30
7720;DHT22;3902;49.474;8.616;2023-02-28T11:00:23;7.50;88.00
7720;DHT22;3902;49.474;8.616;2023-02-28T11:02:51;7.60;87.50
7720;DHT22;3902;49.474;8.616;2023-02-28T11:05:35;7.70;86.90
7720;DHT22;3902;49.474;8.616;2023-02-28T11:08:16;7.90;86.30
7720;DHT22;3902;49.474;8.616;2023-02-28T11:10:54;8.10;87.70
7720;DHT22;3902;49.474;8.616;2023-02-28T11:13:24;8.70;87.90
7720;DHT22;3902;49.474;8.616;2023-02-28T11:15:54;9.20;85.40
7720;DHT22;3902;49.474;8.616;2023-02-28T11:18:27;10.10;84.10
7720;DHT22;3902;49.474;8.616;2023-02-28T11:20:56;10.90;81.10
7720;DHT22;3902;49.474;8.616;2023-02-28T11:23:25;11.70;80.60
7720;DHT22;3902;49.474;8.616;2023-02-28T11:25:55;12.80;76.60
7720;DHT22;3902;49.474;8.616;2023-02-28T11:28:42;13.40;74.50
7720;DHT22;3902;49.474;8.616;2023-02-28T11:31:15;14.10;73.70
7720;DHT22;3902;49.474;8.616;2023-02-28T11:33:42;14.90;71.10
7720;DHT22;3902;49.474;8.616;2023-02-28T11:36:14;15.70;68.80
7720;DHT22;3902;49.474;8.616;2023-02-28T11:38:39;16.30;66.10
7720;DHT22;3902;49.474;8.616;2023-02-28T11:41:27;16.90;63.00
7720;DHT22;3902;49.474;8.616;2023-02-28T11:44:18;17.10;62.10
7720;DHT22;3902;49.474;8.616;2023-02-28T11:46:59;17.40;60.30
7720;DHT22;3902;49.474;8.616;2023-02-28T11:49:40;17.10;58.30
7720;DHT22;3902;49.474;8.616;2023-02-28T11:52:28;17.20;59.30
7720;DHT22;3902;49.474;8.616;2023-02-28T11:55:16;17.30;58.60
7720;DHT22;3902;49.474;8.616;2023-02-28T12:03:49;18.40;57.50
7720;DHT22;3902;49.474;8.616;2023-02-28T12:09:39;19.50;55.30
7720;DHT22;3902;49.474;8.616;2023-02-28T12:12:37;19.60;53.40
7720;DHT22;3902;49.474;8.616;2023-02-28T12:26:31;20.70;49.40
7720;DHT22;3902;49.474;8.616;2023-02-28T12:31:33;20.70;49.40
7720;DHT22;3902;49.474;8.616;2023-02-28T12:34:04;20.80;49.20
7720;DHT22;3902;49.474;8.616;2023-02-28T12:36:32;21.00;49.70
7720;DHT22;3902;49.474;8.616;2023-02-28T12:39:06;21.10;47.70
7720;DHT22;3902;49.474;8.616;2023-02-28T12:41:41;21.40;49.70
7720;DHT22;3902;49.474;8.616;2023-02-28T12:44:32;21.90;48.20
7720;DHT22;3902;49.474;8.616;2023-02-28T12:47:04;22.30;47.60
7720;DHT22;3902;49.474;8.616;2023-02-28T12:52:17;22.50;45.70
7720;DHT22;3902;49.474;8.616;2023-02-28T12:54:54;22.40;45.70
7720;DHT22;3902;49.474;8.616;2023-02-28T12:57:46;22.60;46.10
7720;DHT22;3902;49.474;8.616;2023-02-28T13:00:20;22.30;45.60
7720;DHT22;3902;49.474;8.616;2023-02-28T13:06:10;22.20;45.30
7720;DHT22;3902;49.474;8.616;2023-02-28T13:09:10;22.20;44.80
7720;DHT22;3902;49.474;8.616;2023-02-28T13:11:49;22.00;44.20
7720;DHT22;3902;49.474;8.616;2023-02-28T13:14:26;22.30;45.30
7720;DHT22;3902;49.474;8.616;2023-02-28T13:19:22;22.60;44.80
7720;DHT22;3902;49.474;8.616;2023-02-28T13:21:50;22.50;44.80
7720;DHT22;3902;49.474;8.616;2023-02-28T13:29:38;22.40;44.10
7720;DHT22;3902;49.474;8.616;2023-02-28T13:34:34;22.60;43.50
7720;DHT22;3902;49.474;8.616;2023-02-28T13:42:35;23.00;43.10
7720;DHT22;3902;49.474;8.616;2023-02-28T13:47:41;22.80;42.60
7720;DHT22;3902;49.474;8.616;2023-02-28T13:50:23;22.80;43.60
7720;DHT22;3902;49.474;8.616;2023-02-28T13:55:49;22.80;42.90
7720;DHT22;3902;49.474;8.616;2023-02-28T14:01:05;22.80;42.50
7720;DHT22;3902;49.474;8.616;2023-02-28T14:06:27;22.60;43.80
7720;DHT22;3902;49.474;8.616;2023-02-28T14:09:03;22.50;42.70
7720;DHT22;3902;49.474;8.616;2023-02-28T14:11:34;22.60;43.10
7720;DHT22;3902;49.474;8.616;2023-02-28T14:14:01;22.60;42.50
7720;DHT22;3902;49.474;8.616;2023-02-28T14:16:36;22.60;42.10
7720;DHT22;3902;49.474;8.616;2023-02-28T14:19:13;22.40;42.70
7720;DHT22;3902;49.474;8.616;2023-02-28T14:21:52;22.30;42.70
7720;DHT22;3902;49.474;8.616;2023-02-28T14:30:26;21.40;42.90
7720;DHT22;3902;49.474;8.616;2023-02-28T14:36:16;21.10;43.60
7720;DHT22;3902;49.474;8.616;2023-02-28T14:38:44;20.90;43.10
7720;DHT22;3902;49.474;8.616;2023-02-28T14:41:35;20.80;43.20
7720;DHT22;3902;49.474;8.616;2023-02-28T14:44:03;20.90;43.50
7720;DHT22;3902;49.474;8.616;2023-02-28T14:46:39;20.90;44.20
7720;DHT22;3902;49.474;8.616;2023-02-28T14:49:06;20.90;44.20
7720;DHT22;3902;49.474;8.616;2023-02-28T14:51:37;20.70;44.20
7720;DHT22;3902;49.474;8.616;2023-02-28T14:54:03;20.60;43.40
7720;DHT22;3902;49.474;8.616;2023-02-28T14:56:39;20.50;43.40
7720;DHT22;3902;49.474;8.616;2023-02-28T14:59:17;20.50;44.60
7720;DHT22;3902;49.474;8.616;2023-02-28T15:01:46;20.50;44.60
7720;DHT22;3902;49.474;8.616;2023-02-28T15:04:26;20.40;44.20
7720;DHT22;3902;49.474;8.616;2023-02-28T15:07:12;20.30;43.90
7720;DHT22;3902;49.474;8.616;2023-02-28T15:09:38;20.40;45.20
7720;DHT22;3902;49.474;8.616;2023-02-28T15:12:04;20.50;44.60
7720;DHT22;3902;49.474;8.616;2023-02-28T15:14:30;20.60;44.90
7720;DHT22;3902;49.474;8.616;2023-02-28T15:16:59;20.60;44.40
7720;DHT22;3902;49.474;8.616;2023-02-28T15:19:29;20.50;44.80
7720;DHT22;3902;49.474;8.616;2023-02-28T15:22:06;20.30;44.30
7720;DHT22;3902;49.474;8.616;2023-02-28T15:24:53;19.90;44.40
7720;DHT22;3902;49.474;8.616;2023-02-28T15:27:21;19.60;45.00
7720;DHT22;3902;49.474;8.616;2023-02-28T15:29:50;19.40;45.50
7720;DHT22;3902;49.474;8.616;2023-02-28T15:32:34;19.00;45.80
7720;DHT22;3902;49.474;8.616;2023-02-28T15:35:20;18.50;45.80
7720;DHT22;3902;49.474;8.616;2023-02-28T15:37:54;17.90;46.30
7720;DHT22;3902;49.474;8.616;2023-02-28T15:40:30;17.30;47.10
7720;DHT22;3902;49.474;8.616;2023-02-28T15:43:15;16.90;47.60
7720;DHT22;3902;49.474;8.616;2023-02-28T15:48:34;15.90;48.40
7720;DHT22;3902;49.474;8.616;2023-02-28T15:51:08;15.50;49.10
7720;DHT22;3902;49.474;8.616;2023-02-28T15:53:54;15.10;49.70
7720;DHT22;3902;49.474;8.616;2023-02-28T15:56:32;14.70;50.40
7720;DHT22;3902;49.474;8.616;2023-02-28T15:59:04;14.40;50.30
7720;DHT22;3902;49.474;8.616;2023-02-28T16:01:33;13.90;51.00
7720;DHT22;3902;49.474;8.616;2023-02-28T16:04:03;13.60;51.90
7720;DHT22;3902;49.474;8.616;2023-02-28T16:09:19;13.00;51.90
7720;DHT22;3902;49.474;8.616;2023-02-28T16:11:49;12.80;52.60
7720;DHT22;3902;49.474;8.616;2023-02-28T16:14:20;12.70;53.30
7720;DHT22;3902;49.474;8.616;2023-02-28T16:16:49;12.30;53.40
7720;DHT22;3902;49.474;8.616;2023-02-28T16:19:14;12.10;54.60
7720;DHT22;3902;49.474;8.616;2023-02-28T16:21:40;11.80;54.50
7720;DHT22;3902;49.474;8.616;2023-02-28T16:24:06;11.70;55.00
7720;DHT22;3902;49.474;8.616;2023-02-28T16:26:32;11.50;55.70
7720;DHT22;3902;49.474;8.616;2023-02-28T16:29:00;11.40;56.40
7720;DHT22;3902;49.474;8.616;2023-02-28T16:31:26;11.20;56.60
7720;DHT22;3902;49.474;8.616;2023-02-28T16:33:51;11.00;57.00
7720;DHT22;3902;49.474;8.616;2023-02-28T16:36:20;10.90;57.30
7720;DHT22;3902;49.474;8.616;2023-02-28T16:38:45;10.80;58.10
7720;DHT22;3902;49.474;8.616;2023-02-28T16:41:19;10.70;58.00
7720;DHT22;3902;49.474;8.616;2023-02-28T16:43:49;10.60;58.10
7720;DHT22;3902;49.474;8.616;2023-02-28T16:46:15;10.60;58.00
7720;DHT22;3902;49.474;8.616;2023-02-28T16:48:42;10.30;57.80
7720;DHT22;3902;49.474;8.616;2023-02-28T16:51:15;10.20;57.70
7720;DHT22;3902;49.474;8.616;2023-02-28T16:53:41;10.10;58.40
7720;DHT22;3902;49.474;8.616;2023-02-28T16:56:17;10.00;59.00
7720;DHT22;3902;49.474;8.616;2023-02-28T16:58:44;9.90;60.20
7720;DHT22;3902;49.474;8.616;2023-02-28T17:01:09;9.80;60.90
7720;DHT22;3902;49.474;8.616;2023-02-28T17:03:35;9.60;61.30
7720;DHT22;3902;49.474;8.616;2023-02-28T17:06:02;9.50;61.20
7720;DHT22;3902;49.474;8.616;2023-02-28T17:08:28;9.50;60.90
7720;DHT22;3902;49.474;8.616;2023-02-28T17:10:55;9.40;61.00
7720;DHT22;3902;49.474;8.616;2023-02-28T17:13:20;9.40;61.40
7720;DHT22;3902;49.474;8.616;2023-02-28T17:15:46;9.20;61.70
7720;DHT22;3902;49.474;8.616;2023-02-28T17:18:15;9.20;62.00
7720;DHT22;3902;49.474;8.616;2023-02-28T17:20:41;9.10;62.10
7720;DHT22;3902;49.474;8.616;2023-02-28T17:23:07;9.00;62.40
7720;DHT22;3902;49.474;8.616;2023-02-28T17:25:33;8.90;62.80
7720;DHT22;3902;49.474;8.616;2023-02-28T17:27:58;8.80;63.70
7720;DHT22;3902;49.474;8.616;2023-02-28T17:30:26;8.70;63.80
7720;DHT22;3902;49.474;8.616;2023-02-28T17:32:55;8.70;64.50
7720;DHT22;3902;49.474;8.616;2023-02-28T17:35:22;8.50;64.40
7720;DHT22;3902;49.474;8.616;2023-02-28T17:37:47;8.50;64.30
7720;DHT22;3902;49.474;8.616;2023-02-28T17:40:21;8.50;64.50
7720;DHT22;3902;49.474;8.616;2023-02-28T17:42:47;8.30;65.10
7720;DHT22;3902;49.474;8.616;2023-02-28T17:45:14;8.30;65.00
7720;DHT22;3902;49.474;8.616;2023-02-28T17:47:42;8.20;65.40
7720;DHT22;3902;49.474;8.616;2023-02-28T17:50:17;8.20;65.70
7720;DHT22;3902;49.474;8.616;2023-02-28T17:52:43;8.20;65.70
7720;DHT22;3902;49.474;8.616;2023-02-28T17:55:09;8.10;65.80
7720;DHT22;3902;49.474;8.616;2023-02-28T17:57:35;8.00;66.20
7720;DHT22;3902;49.474;8.616;2023-02-28T18:00:00;8.00;66.50
7720;DHT22;3902;49.474;8.616;2023-02-28T18:02:30;7.90;66.50
7720;DHT22;3902;49.474;8.616;2023-02-28T18:04:56;7.80;66.90
7720;DHT22;3902;49.474;8.616;2023-02-28T18:07:23;7.70;67.30
7720;DHT22;3902;49.474;8.616;2023-02-28T18:09:49;7.70;67.70
7720;DHT22;3902;49.474;8.616;2023-02-28T18:12:14;7.60;67.60
7720;DHT22;3902;49.474;8.616;2023-02-28T18:14:41;7.60;67.60
7720;DHT22;3902;49.474;8.616;2023-02-28T18:17:09;7.50;67.60